createdAt,value
2022-10-07T00:01:53.662Z,96773.03
2022-10-07T00:06:56.922Z,96775.78
2022-10-07T00:12:00.182Z,96774.19
2022-10-07T00:17:03.604Z,96773.56
2022-10-07T00:22:07.158Z,96771.19
2022-10-07T00:27:10.431Z,96765.75
2022-10-07T00:32:16.173Z,96754.41
2022-10-07T00:37:19.444Z,96750.38
2022-10-07T00:42:22.834Z,96744.09
2022-10-07T00:47:26.135Z,96737.91
2022-10-07T00:52:30.348Z,96730.88
2022-10-07T00:57:33.583Z,96725.50
2022-10-07T01:02:37.027Z,96720.09
2022-10-07T01:07:40.633Z,96712.00
2022-10-07T01:12:43.983Z,96714.72
2022-10-07T01:17:47.537Z,96706.66
2022-10-07T01:22:51.202Z,96701.25
2022-10-07T01:27:54.543Z,96698.53
2022-10-07T01:32:59.356Z,96693.63
2022-10-07T01:38:02.548Z,96688.31
2022-10-07T01:43:06.105Z,96684.00
2022-10-07T01:48:09.314Z,96673.97
2022-10-07T01:53:15.486Z,96674.72
2022-10-07T01:58:18.966Z,96670.72
2022-10-07T02:03:22.317Z,96673.97
2022-10-07T02:08:25.578Z,96660.78
2022-10-07T02:13:29.037Z,96665.09
2022-10-07T02:18:32.580Z,96662.41
2022-10-07T02:23:37.050Z,96654.28
2022-10-07T02:28:40.727Z,96656.16
2022-10-07T02:33:44.177Z,96655.91
2022-10-07T02:38:48.516Z,96648.00
2022-10-07T02:43:53.062Z,96646.38
2022-10-07T02:48:57.390Z,96637.22
2022-10-07T02:54:02.348Z,96643.81
2022-10-07T02:59:05.483Z,96636.25
2022-10-07T03:04:08.945Z,96636.31
2022-10-07T03:09:12.290Z,96632.41
2022-10-07T03:14:15.599Z,96629.72
2022-10-07T03:19:18.924Z,96632.53
2022-10-07T03:24:22.221Z,96627.69
2022-10-07T03:29:26.579Z,96627.53
2022-10-07T03:34:37.583Z,96634.47
2022-10-07T03:39:40.935Z,96623.25
2022-10-07T03:44:44.442Z,96622.38
2022-10-07T03:49:47.634Z,96626.53
2022-10-07T03:54:50.768Z,96628.72
2022-10-07T03:59:53.969Z,96623.06
2022-10-07T04:04:58.757Z,96620.25
2022-10-07T04:10:01.919Z,96610.75
2022-10-07T04:15:06.264Z,96605.19
2022-10-07T04:20:09.704Z,96609.84
2022-10-07T04:25:30.936Z,96598.91
2022-10-07T04:30:34.948Z,96596.69
2022-10-07T04:35:38.776Z,96592.84
2022-10-07T04:40:41.998Z,96588.91
2022-10-07T04:45:45.149Z,96579.59
2022-10-07T04:50:48.469Z,96580.63
2022-10-07T04:55:51.779Z,96583.72
2022-10-07T05:00:55.440Z,96574.69
2022-10-07T05:06:04.609Z,96581.22
2022-10-07T05:11:08.670Z,96587.31
2022-10-07T05:16:12.190Z,96572.19
2022-10-07T05:21:16.193Z,96581.34
2022-10-07T05:26:19.714Z,96578.38
2022-10-07T05:31:23.016Z,96580.47
2022-10-07T05:36:26.326Z,96577.69
2022-10-07T05:41:29.502Z,96572.41
2022-10-07T05:46:33.181Z,96575.38
2022-10-07T05:51:36.367Z,96567.63
2022-10-07T05:56:39.525Z,96576.34
2022-10-07T06:01:43.504Z,96567.25
2022-10-07T06:06:50.826Z,96569.06
2022-10-07T06:12:12.054Z,96572.41
2022-10-07T06:17:17.655Z,96575.72
2022-10-07T06:22:21.861Z,96584.47
2022-10-07T06:27:25.294Z,96576.47
2022-10-07T06:32:28.962Z,96568.78
2022-10-07T06:37:32.707Z,96567.97
2022-10-07T06:42:36.064Z,96566.69
2022-10-07T06:47:39.634Z,96575.09
2022-10-07T06:52:43.665Z,96566.19
2022-10-07T06:57:46.887Z,96568.06
2022-10-07T07:02:50.831Z,96565.91
2022-10-07T07:07:54.348Z,96563.50
2022-10-07T07:12:57.778Z,96566.47
2022-10-07T07:18:01.263Z,96564.28
2022-10-07T07:23:04.501Z,96565.66
2022-10-07T07:28:07.700Z,96565.31
2022-10-07T07:33:11.525Z,96564.72
2022-10-07T07:38:14.693Z,96552.41
2022-10-07T07:43:17.837Z,96546.72
2022-10-07T07:48:21.018Z,96549.75
2022-10-07T07:53:24.466Z,96543.03
2022-10-07T07:58:27.960Z,96541.97
2022-10-07T08:03:31.136Z,96535.03
2022-10-07T08:08:34.268Z,96531.69
2022-10-07T08:13:39.649Z,96530.94
2022-10-07T08:18:42.818Z,96527.22
2022-10-07T08:23:47.910Z,96532.59
2022-10-07T08:28:51.093Z,96523.28
2022-10-07T08:33:54.658Z,96524.69
2022-10-07T08:38:58.290Z,96515.38
2022-10-07T08:44:04.177Z,96507.97
2022-10-07T08:49:09.459Z,96499.63
2022-10-07T08:54:12.649Z,96499.63
2022-10-07T08:59:16.034Z,96496.66
2022-10-07T09:04:20.013Z,96497.81
2022-10-07T09:09:23.230Z,96498.13
2022-10-07T09:14:26.449Z,96482.47
2022-10-07T09:19:29.783Z,96482.75
2022-10-07T09:24:33.152Z,96479.28
2022-10-07T09:29:36.567Z,96474.13
2022-10-07T09:34:39.772Z,96466.03
2022-10-07T09:39:42.956Z,96454.81
2022-10-07T09:44:48.273Z,96458.44
2022-10-07T09:49:51.526Z,96462.81
2022-10-07T09:54:54.729Z,96459.22
2022-10-07T09:59:58.242Z,96460.03
2022-10-07T10:05:01.518Z,96447.06
2022-10-07T10:10:04.717Z,96446.16
2022-10-07T10:15:07.454Z,96443.44
2022-10-07T10:20:10.580Z,96435.78
2022-10-07T10:25:45.557Z,96441.13
2022-10-07T10:30:48.491Z,96434.97
2022-10-07T10:35:51.402Z,96427.00
2022-10-07T10:40:54.570Z,96420.19
2022-10-07T10:45:57.757Z,96419.38
2022-10-07T10:51:00.940Z,96418.22
2022-10-07T10:56:04.321Z,96409.97
2022-10-07T11:01:07.210Z,96401.38
2022-10-07T11:06:10.019Z,96400.69
2022-10-07T11:11:19.100Z,96381.50
2022-10-07T11:16:22.436Z,96382.75
2022-10-07T11:21:25.246Z,96371.84
2022-10-07T11:26:31.103Z,96361.41
2022-10-07T11:31:37.421Z,96363.44
2022-10-07T11:36:40.747Z,96347.25
2022-10-07T11:41:45.503Z,96346.56
2022-10-07T11:46:48.689Z,96339.03
2022-10-07T11:51:51.958Z,96337.63
2022-10-07T11:56:56.135Z,96324.28
2022-10-07T12:01:59.449Z,96309.56
2022-10-07T12:07:04.143Z,96305.69
2022-10-07T12:12:06.958Z,96299.38
2022-10-07T12:17:10.945Z,96295.34
2022-10-07T12:22:13.979Z,96287.44
2022-10-07T12:27:17.303Z,96275.59
2022-10-07T12:32:20.139Z,96263.94
2022-10-07T12:37:27.435Z,96267.94
2022-10-07T12:42:33.280Z,96258.25
2022-10-07T12:47:36.041Z,96258.50
2022-10-07T12:52:40.513Z,96239.25
2022-10-07T12:57:43.368Z,96244.44
2022-10-07T13:02:46.361Z,96256.69
2022-10-07T13:07:49.382Z,96248.06
2022-10-07T13:12:52.281Z,96247.94
2022-10-07T13:17:55.105Z,96248.31
2022-10-07T13:22:58.819Z,96238.34
2022-10-07T13:28:01.743Z,96238.16
2022-10-07T13:33:04.863Z,96229.47
2022-10-07T13:38:07.802Z,96221.44
2022-10-07T13:43:11.067Z,96222.41
2022-10-07T13:48:16.228Z,96222.34
2022-10-07T13:53:19.691Z,96212.81
2022-10-07T13:58:23.013Z,96219.34
2022-10-07T14:03:26.289Z,96208.94
2022-10-07T14:08:29.731Z,96208.19
2022-10-07T14:13:32.911Z,96204.97
2022-10-07T14:18:37.079Z,96202.03
2022-10-07T14:23:40.473Z,96201.25
2022-10-07T14:28:43.720Z,96201.41
2022-10-07T14:34:03.660Z,96190.69
2022-10-07T14:39:07.076Z,96192.81
2022-10-07T14:44:10.691Z,96193.28
2022-10-07T14:49:14.070Z,96177.09
2022-10-07T14:54:17.239Z,96176.00
2022-10-07T14:59:20.509Z,96170.56
2022-10-07T15:04:24.035Z,96174.38
2022-10-07T15:09:27.209Z,96168.53
2022-10-07T15:14:29.905Z,96163.84
2022-10-07T15:19:32.707Z,96165.09
2022-10-07T15:24:35.533Z,96164.66
2022-10-07T15:29:39.353Z,96166.31
2022-10-07T15:34:48.211Z,96161.22
2022-10-07T15:39:51.335Z,96154.84
2022-10-07T15:44:54.205Z,96156.22
2022-10-07T15:49:57.433Z,96148.28
2022-10-07T15:55:07.393Z,96159.19
2022-10-07T16:00:18.218Z,96148.72
2022-10-07T16:05:24.310Z,96152.84
2022-10-07T16:10:27.245Z,96154.63
2022-10-07T16:15:29.999Z,96156.91
2022-10-07T16:20:32.732Z,96153.53
2022-10-07T16:25:36.689Z,96151.19
2022-10-07T16:30:42.664Z,96156.84
2022-10-07T16:35:46.342Z,96164.75
2022-10-07T16:40:49.485Z,96169.13
2022-10-07T16:45:52.202Z,96167.13
2022-10-07T16:50:55.534Z,96159.31
2022-10-07T16:55:58.720Z,96160.72
2022-10-07T17:01:02.234Z,96168.34
2022-10-07T17:06:05.518Z,96169.19
2022-10-07T17:11:08.725Z,96161.41
2022-10-07T17:16:13.656Z,96164.66
2022-10-07T17:21:16.929Z,96171.69
2022-10-07T17:26:20.944Z,96163.91
2022-10-07T17:31:24.292Z,96162.59
2022-10-07T17:36:27.490Z,96164.75
2022-10-07T17:41:30.977Z,96160.72
2022-10-07T17:46:36.834Z,96168.03
2022-10-07T17:51:42.595Z,96162.59
2022-10-07T17:56:47.838Z,96169.63
2022-10-07T18:01:51.341Z,96177.69
2022-10-07T18:06:54.930Z,96153.75
2022-10-07T18:12:16.024Z,96168.53
2022-10-07T18:17:19.665Z,96156.16
2022-10-07T18:22:23.698Z,96165.84
2022-10-07T18:27:27.602Z,96153.47
2022-10-07T18:32:31.637Z,96160.47
2022-10-07T18:37:34.925Z,96160.47
2022-10-07T18:42:39.177Z,96155.34
2022-10-07T18:47:42.627Z,96154.00
2022-10-07T18:52:45.887Z,96155.63
2022-10-07T18:57:49.472Z,96155.88
2022-10-07T19:02:52.810Z,96154.00
2022-10-07T19:07:56.171Z,96159.91
2022-10-07T19:13:22.365Z,96152.38
2022-10-07T19:18:27.062Z,96154.50
2022-10-07T19:23:30.264Z,96149.97
2022-10-07T19:28:33.495Z,96152.38
2022-10-07T19:33:36.634Z,96151.56
2022-10-07T19:38:41.848Z,96152.94
2022-10-07T19:43:46.641Z,96151.28
2022-10-07T19:48:49.859Z,96162.53
2022-10-07T19:53:53.077Z,96154.22
2022-10-07T19:58:56.501Z,96148.84
2022-10-07T20:03:59.757Z,96150.44
2022-10-07T20:09:03.377Z,96149.06
2022-10-07T20:14:07.537Z,96144.50
2022-10-07T20:19:11.016Z,96141.25
2022-10-07T20:24:15.211Z,96143.94
2022-10-07T20:29:22.713Z,96144.50
2022-10-07T20:34:28.468Z,96147.97
2022-10-07T20:39:49.535Z,96129.94
2022-10-07T20:44:52.827Z,96138.78
2022-10-07T20:49:57.955Z,96130.72
2022-10-07T20:55:01.237Z,96130.13
2022-10-07T21:00:16.612Z,96122.06
2022-10-07T21:05:25.238Z,96126.88
2022-10-07T21:10:28.544Z,96119.28
2022-10-07T21:15:31.813Z,96112.03
2022-10-07T21:20:36.170Z,96115.22
2022-10-07T21:25:39.486Z,96104.78
2022-10-07T21:30:43.406Z,96113.06
2022-10-07T21:35:47.031Z,96109.06
2022-10-07T21:40:50.371Z,96109.03
2022-10-07T21:45:53.601Z,96102.63
2022-10-07T21:50:56.816Z,96110.94
2022-10-07T21:56:00.382Z,96110.94
2022-10-07T22:01:03.918Z,96107.97
2022-10-07T22:06:07.221Z,96100.94
2022-10-07T22:11:10.529Z,96093.13
2022-10-07T22:16:14.816Z,96095.28
2022-10-07T22:21:19.494Z,96085.34
2022-10-07T22:26:23.070Z,96078.59
2022-10-07T22:31:30.564Z,96083.16
2022-10-07T22:36:33.863Z,96090.63
2022-10-07T22:41:37.552Z,96082.53
2022-10-07T22:46:41.490Z,96084.06
2022-10-07T22:51:45.237Z,96075.22
2022-10-07T22:56:48.556Z,96064.72
2022-10-07T23:01:51.746Z,96072.41
2022-10-07T23:07:00.885Z,96067.63
2022-10-07T23:12:05.985Z,96062.50
2022-10-07T23:17:10.704Z,96063.28
2022-10-07T23:22:13.973Z,96056.53
2022-10-07T23:27:17.250Z,96057.56
2022-10-07T23:32:20.468Z,96053.31
2022-10-07T23:37:25.299Z,96053.28
2022-10-07T23:42:38.487Z,96053.31
2022-10-07T23:47:43.405Z,96047.06
2022-10-07T23:52:46.776Z,96041.44
2022-10-07T23:57:50.445Z,96041.75
